Time;durP1;ratioP1;P1;durP2;ratioP2;P2;SDS_P1;SDS_P2;PMS_P1;PMS_P2;Temp;Humidity;BMP_temperature;BMP_pressure;BME280_temperature;BME280_humidity;BME280_pressure;Samples;Min_cycle;Max_cycle;Signal;HPM_P1;HPM_P2
2023/11/30 00:02:03;;;;;;;16.90;10.07;;;;;;;3.26;100.00;99188.44;5115526;28;20034;-78
2023/11/30 00:04:29;;;;;;;16.27;10.38;;;;;;;3.23;100.00;99194.56;5114201;28;20073;-77
2023/11/30 00:06:54;;;;;;;14.43;9.27;;;;;;;3.23;100.00;99203.66;5114618;28;20032;-78
2023/11/30 00:09:20;;;;;;;17.90;9.63;;;;;;;3.20;100.00;99201.50;5115446;28;20015;-78
2023/11/30 00:11:46;;;;;;;16.73;10.57;;;;;;;3.15;100.00;99209.84;5087383;28;20032;-78
2023/11/30 00:14:12;;;;;;;16.25;9.63;;;;;;;3.20;100.00;99220.03;5094809;28;20031;-77
2023/11/30 00:16:38;;;;;;;15.95;9.60;;;;;;;3.12;100.00;99215.94;5094999;28;20111;-77
2023/11/30 00:19:03;;;;;;;17.42;10.88;;;;;;;3.11;100.00;99222.59;5076612;28;20035;-77
2023/11/30 00:21:28;;;;;;;14.27;9.75;;;;;;;3.11;100.00;99228.13;5106715;28;20084;-77
2023/11/30 00:23:54;;;;;;;16.20;10.25;;;;;;;3.11;100.00;99233.66;5095947;28;20031;-78
2023/11/30 00:26:19;;;;;;;19.63;11.20;;;;;;;3.08;100.00;99242.53;5115065;28;20023;-77
2023/11/30 00:28:45;;;;;;;17.70;10.35;;;;;;;2.98;100.00;99245.38;5115054;28;20024;-77
2023/11/30 00:31:10;;;;;;;18.27;11.82;;;;;;;3.00;100.00;99251.44;5115067;28;20540;-77
2023/11/30 00:33:36;;;;;;;15.48;9.63;;;;;;;2.91;100.00;99254.84;5114907;28;20523;-78
2023/11/30 00:36:02;;;;;;;18.88;11.02;;;;;;;2.88;100.00;99269.22;5095897;28;20028;-77
2023/11/30 00:38:27;;;;;;;17.50;11.23;;;;;;;2.95;100.00;99266.94;5112827;28;20034;-78
2023/11/30 00:40:53;;;;;;;18.02;11.25;;;;;;;2.95;100.00;99268.88;5114670;28;20043;-77
2023/11/30 00:43:18;;;;;;;16.85;10.50;;;;;;;2.99;100.00;99286.53;5114680;28;20479;-77
2023/11/30 00:45:44;;;;;;;18.63;10.75;;;;;;;3.09;100.00;99277.34;5114696;28;20111;-77
2023/11/30 00:48:09;;;;;;;21.63;9.90;;;;;;;3.25;100.00;99277.19;5096382;28;20031;-77
2023/11/30 00:50:35;;;;;;;15.13;9.30;;;;;;;3.50;100.00;99295.47;5095355;28;20030;-78
2023/11/30 00:53:00;;;;;;;18.70;11.32;;;;;;;3.58;100.00;99282.94;5114633;28;20080;-78
2023/11/30 00:55:26;;;;;;;16.15;10.65;;;;;;;3.71;100.00;99279.47;5096125;28;20031;-78
2023/11/30 00:57:51;;;;;;;16.27;11.50;;;;;;;3.68;100.00;99293.06;5096262;28;20481;-78
2023/11/30 01:00:17;;;;;;;18.02;10.75;;;;;;;3.81;100.00;99294.31;5114388;28;20039;-78
2023/11/30 01:02:43;;;;;;;16.23;9.77;;;;;;;3.91;100.00;99283.16;5114476;28;20054;-78
2023/11/30 01:05:08;;;;;;;13.43;9.13;;;;;;;3.86;100.00;99295.09;5114197;28;20055;-78
2023/11/30 01:07:35;;;;;;;14.43;8.93;;;;;;;3.78;100.00;99293.81;5113440;28;20027;-78
2023/11/30 01:10:01;;;;;;;15.15;9.15;;;;;;;3.77;100.00;99300.47;5114128;28;20023;-78
2023/11/30 01:12:26;;;;;;;12.40;8.18;;;;;;;3.74;100.00;99302.97;5114230;28;20104;-78
2023/11/30 01:14:53;;;;;;;13.75;8.20;;;;;;;3.85;100.00;99317.50;5114237;28;20046;-78
2023/11/30 01:17:19;;;;;;;13.48;8.88;;;;;;;3.82;100.00;99321.72;5114208;28;20028;-78
2023/11/30 01:19:44;;;;;;;11.25;8.00;;;;;;;3.82;100.00;99313.41;5113998;28;20103;-78
2023/11/30 01:22:10;;;;;;;12.88;8.90;;;;;;;3.77;100.00;99313.44;5113365;28;20401;-78
2023/11/30 01:24:36;;;;;;;11.98;8.27;;;;;;;3.76;100.00;99317.34;5113210;28;20051;-78
2023/11/30 01:27:01;;;;;;;13.43;8.60;;;;;;;3.83;100.00;99317.00;5113909;28;20031;-78
2023/11/30 01:29:27;;;;;;;11.65;8.25;;;;;;;3.68;100.00;99313.28;5113809;28;20564;-78
2023/11/30 01:31:53;;;;;;;11.60;7.70;;;;;;;3.64;100.00;99323.28;5095531;28;20169;-78
2023/11/30 01:34:19;;;;;;;13.30;8.80;;;;;;;3.63;100.00;99335.47;5113652;28;20028;-78
2023/11/30 01:36:44;;;;;;;15.77;8.88;;;;;;;3.53;100.00;99321.75;5113794;28;20381;-78
2023/11/30 01:39:10;;;;;;;11.73;8.35;;;;;;;3.65;100.00;99339.56;5112587;28;20122;-78
2023/11/30 01:41:36;;;;;;;11.90;8.30;;;;;;;3.49;100.00;99335.31;5112619;28;20473;-78
2023/11/30 01:44:02;;;;;;;15.75;9.15;;;;;;;3.48;100.00;99334.47;5095303;28;20518;-78
2023/11/30 01:46:29;;;;;;;37.42;18.65;;;;;;;3.26;100.00;99328.59;5095071;28;20161;-78
2023/11/30 01:48:54;;;;;;;38.33;19.27;;;;;;;3.31;100.00;99328.56;5113555;28;20511;-78
2023/11/30 01:51:20;;;;;;;24.33;12.75;;;;;;;3.16;100.00;99330.34;5113457;28;20134;-78
2023/11/30 01:53:46;;;;;;;16.80;9.98;;;;;;;3.07;100.00;99345.91;5112233;28;20034;-78
2023/11/30 01:56:12;;;;;;;15.93;9.00;;;;;;;3.04;100.00;99349.25;5111646;28;20419;-78
2023/11/30 01:58:38;;;;;;;15.50;9.05;;;;;;;2.92;100.00;99355.13;5095116;28;20027;-78
2023/11/30 02:01:05;;;;;;;15.57;9.18;;;;;;;2.82;100.00;99353.25;5113272;28;20030;-77
2023/11/30 02:03:31;;;;;;;11.77;8.77;;;;;;;2.77;100.00;99344.97;5112458;28;20031;-78
2023/11/30 02:05:56;;;;;;;13.50;8.73;;;;;;;2.76;100.00;99349.69;5094772;28;20480;-77
2023/11/30 02:08:22;;;;;;;13.63;8.93;;;;;;;2.59;100.00;99347.31;5094320;28;20028;-77
2023/11/30 02:10:47;;;;;;;14.45;9.45;;;;;;;2.60;100.00;99354.47;5112379;28;20038;-78
2023/11/30 02:13:13;;;;;;;12.82;9.05;;;;;;;2.54;100.00;99347.34;5112996;28;20085;-78
2023/11/30 02:15:38;;;;;;;16.05;9.52;;;;;;;2.41;100.00;99354.31;5112972;28;20012;-78
2023/11/30 02:18:04;;;;;;;15.13;9.23;;;;;;;2.41;100.00;99354.31;5113000;28;20477;-77
2023/11/30 02:20:29;;;;;;;15.52;8.98;;;;;;;2.44;100.00;99358.44;5094572;28;20449;-77
2023/11/30 02:22:55;;;;;;;14.00;9.55;;;;;;;2.38;100.00;99355.69;5094570;28;20023;-78
2023/11/30 02:25:20;;;;;;;15.30;9.55;;;;;;;2.36;100.00;99355.16;5111141;28;20024;-78
2023/11/30 02:27:46;;;;;;;21.83;9.88;;;;;;;2.35;100.00;99359.03;5083155;28;20023;-78
2023/11/30 02:30:12;;;;;;;16.17;9.70;;;;;;;2.35;100.00;99370.06;5112687;28;20522;-77
2023/11/30 02:32:37;;;;;;;17.50;9.77;;;;;;;2.18;100.00;99358.56;5112724;28;20564;-78
2023/11/30 02:35:03;;;;;;;17.08;9.63;;;;;;;2.21;100.00;99367.06;5094212;28;20022;-77
2023/11/30 02:37:29;;;;;;;20.10;12.07;;;;;;;2.30;100.00;99361.81;5094365;28;20012;-77
2023/11/30 02:39:54;;;;;;;18.35;10.98;;;;;;;2.32;100.00;99362.34;5110595;28;20480;-78
2023/11/30 02:42:20;;;;;;;19.08;11.15;;;;;;;2.18;100.00;99362.13;5111640;28;20387;-78
2023/11/30 02:44:46;;;;;;;16.02;9.88;;;;;;;2.03;100.00;99365.75;5112383;28;20098;-77
2023/11/30 02:47:12;;;;;;;14.63;10.05;;;;;;;1.96;100.00;99370.75;5112193;28;20031;-77
2023/11/30 02:49:37;;;;;;;14.77;9.90;;;;;;;1.94;100.00;99354.47;5094092;28;20027;-77
2023/11/30 02:52:03;;;;;;;17.80;10.43;;;;;;;2.03;100.00;99360.25;5094250;28;20077;-77
2023/11/30 02:54:28;;;;;;;18.65;10.45;;;;;;;1.99;100.00;99353.63;5112274;28;20024;-78
2023/11/30 02:56:54;;;;;;;19.13;10.98;;;;;;;2.04;100.00;99356.38;5110365;28;20027;-78
2023/11/30 02:59:19;;;;;;;17.88;10.63;;;;;;;1.98;100.00;99373.22;5094012;28;20031;-77
2023/11/30 03:01:49;;;;;;;13.52;9.18;;;;;;;1.95;100.00;99374.63;5108643;28;20027;-78
2023/11/30 03:04:14;;;;;;;15.25;10.13;;;;;;;1.94;100.00;99384.81;5090442;28;20066;-78
2023/11/30 03:06:40;;;;;;;16.88;10.85;;;;;;;1.87;100.00;99378.78;5092843;28;20051;-77
2023/11/30 03:09:07;;;;;;;14.68;9.73;;;;;;;1.95;100.00;99396.69;5088662;28;20110;-77
2023/11/30 03:11:32;;;;;;;19.92;10.88;;;;;;;1.94;100.00;99397.81;5105988;28;20156;-77
2023/11/30 03:13:58;;;;;;;19.75;12.50;;;;;;;1.90;100.00;99397.53;5111920;28;20503;-77
2023/11/30 03:16:25;;;;;;;20.02;11.10;;;;;;;1.85;100.00;99400.28;5110357;28;20404;-77
2023/11/30 03:18:50;;;;;;;17.52;10.98;;;;;;;1.88;100.00;99407.19;5093205;28;20633;-77
2023/11/30 03:21:20;;;;;;;16.80;10.13;;;;;;;1.77;100.00;99415.47;5111442;28;20047;-77
2023/11/30 03:23:46;;;;;;;15.57;9.10;;;;;;;1.79;100.00;99416.00;5093595;28;20120;-77
2023/11/30 03:26:18;;;;;;;15.88;9.65;;;;;;;1.70;100.00;99412.19;5093380;28;20114;-77
2023/11/30 03:28:44;;;;;;;18.38;10.05;;;;;;;1.65;100.00;99409.41;5093204;28;20124;-77
2023/11/30 03:31:10;;;;;;;15.32;10.32;;;;;;;1.84;100.00;99419.88;5110068;28;20118;-77
2023/11/30 03:33:35;;;;;;;13.60;8.43;;;;;;;1.82;100.00;99425.69;5109528;28;20551;-78
2023/11/30 03:36:01;;;;;;;18.48;9.95;;;;;;;1.94;100.00;99434.47;5110800;28;20428;-78
2023/11/30 03:38:26;;;;;;;19.42;9.80;;;;;;;2.00;100.00;99437.25;5110790;28;20030;-77
2023/11/30 03:40:52;;;;;;;20.65;12.32;;;;;;;1.98;100.00;99433.91;5110723;28;20050;-77
2023/11/30 03:43:17;;;;;;;14.38;10.10;;;;;;;1.98;100.00;99429.25;5110379;28;20031;-78
2023/11/30 03:45:42;;;;;;;16.63;9.65;;;;;;;1.91;100.00;99428.69;5110264;28;20027;-78
2023/11/30 03:48:08;;;;;;;20.40;11.23;;;;;;;1.88;100.00;99429.25;5110682;28;20098;-78
2023/11/30 03:50:34;;;;;;;15.25;10.20;;;;;;;1.87;100.00;99435.88;5092381;28;20030;-77
2023/11/30 03:52:59;;;;;;;17.52;10.75;;;;;;;1.90;100.00;99438.06;5109251;28;20461;-78
2023/11/30 03:55:24;;;;;;;26.27;11.43;;;;;;;1.95;100.00;99438.09;5110705;28;20487;-77
2023/11/30 03:57:50;;;;;;;18.67;11.02;;;;;;;1.90;100.00;99438.06;5092419;28;20454;-78
2023/11/30 04:00:16;;;;;;;17.05;11.95;;;;;;;1.90;100.00;99443.59;5092008;28;20399;-78
2023/11/30 04:02:42;;;;;;;16.42;10.73;;;;;;;1.94;100.00;99447.47;5110048;28;20023;-78
2023/11/30 04:05:10;;;;;;;15.63;10.48;;;;;;;1.82;100.00;99448.59;5109546;28;20032;-78
2023/11/30 04:07:36;;;;;;;22.88;12.63;;;;;;;1.88;100.00;99452.16;5093114;28;20036;-77
2023/11/30 04:10:06;;;;;;;18.98;11.55;;;;;;;2.13;100.00;99455.16;5091647;28;20118;-78
2023/11/30 04:12:32;;;;;;;22.90;12.87;;;;;;;2.02;100.00;99448.84;5109995;28;20038;-77
2023/11/30 04:14:57;;;;;;;17.70;11.10;;;;;;;2.14;100.00;99460.41;5091595;28;20556;-77
2023/11/30 04:17:23;;;;;;;16.30;9.88;;;;;;;1.75;100.00;99455.47;5110053;28;20023;-77
2023/11/30 04:19:48;;;;;;;25.42;11.88;;;;;;;1.68;100.00;99455.72;5103160;28;20023;-77
2023/11/30 04:22:14;;;;;;;18.08;11.68;;;;;;;1.74;100.00;99471.19;5092237;28;20031;-77
2023/11/30 04:24:39;;;;;;;19.23;11.90;;;;;;;1.94;100.00;99477.81;5110432;28;20479;-77
2023/11/30 04:27:05;;;;;;;16.00;10.63;;;;;;;2.00;100.00;99473.13;5105813;28;20028;-77
2023/11/30 04:29:30;;;;;;;22.58;11.65;;;;;;;2.13;100.00;99489.09;5100742;28;20400;-77
2023/11/30 04:31:56;;;;;;;20.75;10.93;;;;;;;2.07;100.00;99487.44;5100654;28;20419;-77
2023/11/30 04:34:21;;;;;;;16.77;11.32;;;;;;;2.16;100.00;99488.53;5101570;28;20344;-77
2023/11/30 04:36:47;;;;;;;20.55;11.20;;;;;;;2.24;100.00;99510.06;5108339;28;20416;-77
2023/11/30 04:39:12;;;;;;;20.00;10.23;;;;;;;2.28;100.00;99515.03;5094289;28;20548;-77
2023/11/30 04:41:38;;;;;;;16.27;10.50;;;;;;;2.03;100.00;99506.47;5091245;28;20096;-77
2023/11/30 04:44:04;;;;;;;17.80;10.55;;;;;;;2.20;100.00;99508.13;5114711;28;20460;-77
2023/11/30 04:46:30;;;;;;;21.50;10.70;;;;;;;2.13;100.00;99500.13;5114453;28;20058;-77
2023/11/30 04:48:57;;;;;;;37.97;33.85;;;;;;;2.24;100.00;99503.69;5113848;28;20493;-76
2023/11/30 04:51:22;;;;;;;73.55;66.38;;;;;;;2.13;100.00;99502.91;5112801;28;20588;-74
2023/11/30 04:53:48;;;;;;;17.98;12.82;;;;;;;2.05;100.00;99512.56;5115129;28;20031;-72
2023/11/30 04:56:14;;;;;;;18.80;13.38;;;;;;;1.74;100.00;99528.28;5114619;28;20024;-75
2023/11/30 04:58:39;;;;;;;22.77;13.75;;;;;;;1.58;100.00;99531.03;5095529;28;20565;-77
2023/11/30 05:01:05;;;;;;;25.75;17.02;;;;;;;1.50;100.00;99532.38;5114502;28;20416;-74
2023/11/30 05:03:30;;;;;;;30.20;17.58;;;;;;;1.56;100.00;99527.72;5096351;28;20047;-75
2023/11/30 05:05:56;;;;;;;31.02;20.45;;;;;;;1.62;100.00;99532.13;5114276;28;20032;-74
2023/11/30 05:08:21;;;;;;;26.98;17.88;;;;;;;1.75;100.00;99543.72;5114231;28;20038;-74
2023/11/30 05:10:47;;;;;;;36.92;20.33;;;;;;;1.64;100.00;99562.19;5095792;28;20035;-74
2023/11/30 05:13:12;;;;;;;38.63;21.85;;;;;;;1.64;100.00;99551.16;5095003;28;20035;-74
2023/11/30 05:15:39;;;;;;;41.30;27.38;;;;;;;1.78;100.00;99562.50;5114054;28;20469;-74
2023/11/30 05:18:05;;;;;;;47.95;24.95;;;;;;;1.74;100.00;99558.59;5114037;28;20079;-74
2023/11/30 05:20:31;;;;;;;40.28;24.95;;;;;;;1.82;100.00;99564.44;5114115;28;20487;-74
2023/11/30 05:22:56;;;;;;;40.85;21.95;;;;;;;1.86;100.00;99558.34;5095583;28;20030;-75
2023/11/30 05:25:22;;;;;;;38.55;21.52;;;;;;;1.89;100.00;99566.91;5113861;28;20023;-75
2023/11/30 05:27:48;;;;;;;36.67;19.73;;;;;;;1.83;100.00;99565.25;5112073;28;20031;-74
2023/11/30 05:30:13;;;;;;;37.10;19.45;;;;;;;1.93;100.00;99570.78;5094830;28;20406;-74
2023/11/30 05:32:38;;;;;;;41.10;21.75;;;;;;;1.92;100.00;99577.41;5113732;28;20035;-74
2023/11/30 05:35:05;;;;;;;46.08;24.48;;;;;;;1.93;100.00;99569.94;5095497;28;20506;-70
2023/11/30 05:37:31;;;;;;;48.47;24.30;;;;;;;1.84;100.00;99560.56;5113767;28;20019;-73
2023/11/30 05:39:58;;;;;;;57.72;25.85;;;;;;;2.00;100.00;99553.94;5113715;28;20116;-70
2023/11/30 05:42:24;;;;;;;51.88;24.63;;;;;;;2.08;100.00;99560.84;5111864;28;20096;-73
2023/11/30 05:44:49;;;;;;;43.75;25.08;;;;;;;2.06;100.00;99560.28;5095248;28;20055;-72
2023/11/30 05:47:15;;;;;;;57.72;25.90;;;;;;;2.24;100.00;99554.22;5113501;28;20030;-76
2023/11/30 05:49:40;;;;;;;49.35;20.75;;;;;;;2.41;100.00;99558.63;5113220;28;20023;-72
2023/11/30 05:52:06;;;;;;;39.00;22.60;;;;;;;2.34;100.00;99536.81;5093105;28;20020;-73
2023/11/30 05:54:31;;;;;;;44.80;22.77;;;;;;;2.29;100.00;99539.56;5073995;28;20027;-75
2023/11/30 05:56:57;;;;;;;51.97;24.80;;;;;;;2.21;100.00;99537.38;5091305;28;20035;-74
2023/11/30 05:59:22;;;;;;;57.13;24.40;;;;;;;2.26;100.00;99545.66;5104318;28;20043;-77
2023/11/30 06:01:48;;;;;;;45.83;24.10;;;;;;;2.27;100.00;99532.69;5092316;28;20032;-78
2023/11/30 06:04:13;;;;;;;46.05;26.15;;;;;;;2.24;100.00;99540.44;5110996;28;20024;-78
2023/11/30 06:06:40;;;;;;;70.18;35.83;;;;;;;2.22;100.00;99537.09;5110296;28;20106;-78
2023/11/30 06:09:06;;;;;;;81.05;43.03;;;;;;;2.42;100.00;99540.13;5108435;28;20093;-78
2023/11/30 06:11:32;;;;;;;73.25;39.97;;;;;;;2.07;100.00;99540.72;5107582;28;20035;-78
2023/11/30 06:13:58;;;;;;;113.70;54.88;;;;;;;2.00;100.00;99547.63;5108569;28;20031;-80
2023/11/30 06:16:23;;;;;;;117.43;59.88;;;;;;;2.36;100.00;99556.69;5092126;28;20027;-79
2023/11/30 06:18:49;;;;;;;128.88;73.80;;;;;;;2.35;100.00;99557.78;5110272;28;20142;-77
2023/11/30 06:21:14;;;;;;;106.20;57.13;;;;;;;2.32;100.00;99565.78;5110464;28;20032;-79
2023/11/30 06:23:39;;;;;;;82.78;46.30;;;;;;;2.50;100.00;99567.16;5110093;28;20043;-79
2023/11/30 06:26:07;;;;;;;61.30;34.40;;;;;;;2.71;100.00;99584.50;5091753;28;20043;-79
2023/11/30 06:28:33;;;;;;;34.42;21.23;;;;;;;2.56;100.00;99596.44;5105368;28;20031;-79
2023/11/30 06:30:58;;;;;;;37.78;20.27;;;;;;;2.77;100.00;99588.09;5108485;28;20024;-78
2023/11/30 06:33:24;;;;;;;36.70;18.13;;;;;;;2.67;100.00;99591.69;5106224;28;20085;-77
2023/11/30 06:35:49;;;;;;;36.20;19.30;;;;;;;2.45;100.00;99595.59;5098303;28;20085;-77
2023/11/30 06:38:15;;;;;;;25.63;13.57;;;;;;;2.67;100.00;99617.41;5106779;28;20032;-76
2023/11/30 06:40:40;;;;;;;21.65;15.85;;;;;;;2.85;100.00;99628.16;5109556;28;20123;-77
2023/11/30 06:43:06;;;;;;;25.90;15.38;;;;;;;3.10;100.00;99630.00;5110114;28;20045;-75
2023/11/30 06:45:31;;;;;;;29.27;17.17;;;;;;;3.08;100.00;99627.53;5108866;28;20035;-75
2023/11/30 06:47:57;;;;;;;23.30;15.55;;;;;;;2.91;100.00;99636.16;5109844;28;20027;-76
2023/11/30 06:50:22;;;;;;;23.08;13.70;;;;;;;2.57;100.00;99628.47;5089513;28;20046;-77
2023/11/30 06:52:48;;;;;;;32.28;19.70;;;;;;;2.58;100.00;99643.94;5107601;28;20061;-77
2023/11/30 06:55:13;;;;;;;67.78;35.80;;;;;;;2.42;100.00;99637.56;5091104;28;20100;-72
2023/11/30 06:57:40;;;;;;;60.20;33.53;;;;;;;2.62;100.00;99646.97;5091299;28;20506;-77
2023/11/30 07:00:09;;;;;;;45.42;26.13;;;;;;;2.83;100.00;99650.53;5108957;28;20376;-76
2023/11/30 07:02:35;;;;;;;48.80;30.48;;;;;;;2.80;100.00;99653.84;5092281;28;20096;-75
2023/11/30 07:05:00;;;;;;;49.60;30.83;;;;;;;2.95;100.00;99666.78;5089696;28;20035;-76
2023/11/30 07:07:26;;;;;;;49.75;30.75;;;;;;;3.12;100.00;99672.00;5090621;28;20038;-73
2023/11/30 07:09:51;;;;;;;41.75;24.75;;;;;;;3.28;100.00;99660.94;5109718;28;20493;-77
2023/11/30 07:12:16;;;;;;;40.83;27.55;;;;;;;3.48;100.00;99680.19;5109357;28;20027;-75
2023/11/30 07:14:42;;;;;;;42.67;26.60;;;;;;;3.43;99.53;99682.97;5091247;28;20035;-78
2023/11/30 07:17:07;;;;;;;41.50;24.02;;;;;;;3.39;99.42;99681.06;5109077;28;20023;-76
2023/11/30 07:19:33;;;;;;;45.17;24.75;;;;;;;3.53;99.88;99679.34;5104490;28;20035;-78
2023/11/30 07:21:58;;;;;;;36.20;22.17;;;;;;;3.60;100.00;99685.41;5110994;28;20033;-78
2023/11/30 07:24:24;;;;;;;30.27;19.52;;;;;;;3.79;98.76;99681.97;5103250;27;20031;-74
2023/11/30 07:26:49;;;;;;;32.80;20.25;;;;;;;3.82;98.55;99675.06;5101125;28;20512;-77
2023/11/30 07:29:15;;;;;;;40.60;23.08;;;;;;;3.92;97.32;99666.72;5101303;28;20016;-77
2023/11/30 07:31:43;;;;;;;43.13;23.77;;;;;;;3.77;98.07;99687.81;5108847;28;20024;-83
2023/11/30 07:34:09;;;;;;;32.40;17.88;;;;;;;3.70;97.83;99708.63;5106196;28;20030;-84
2023/11/30 07:36:34;;;;;;;21.50;13.55;;;;;;;3.82;98.09;99708.28;5104680;28;20475;-84
2023/11/30 07:38:59;;;;;;;18.77;12.38;;;;;;;3.77;98.36;99693.34;5084099;28;20503;-83
2023/11/30 07:41:25;;;;;;;17.65;12.10;;;;;;;3.85;95.93;99704.94;5103415;28;20431;-84
2023/11/30 07:43:50;;;;;;;21.65;12.60;;;;;;;3.90;95.38;99702.16;5097362;28;20453;-83
2023/11/30 07:46:16;;;;;;;20.67;14.57;;;;;;;3.93;95.02;99701.56;5101697;28;20449;-83
2023/11/30 07:48:41;;;;;;;29.63;18.17;;;;;;;3.92;96.19;99700.75;5100527;28;20032;-83
2023/11/30 07:51:07;;;;;;;22.80;14.65;;;;;;;4.00;95.52;99691.03;5081369;28;20113;-83
2023/11/30 07:53:33;;;;;;;23.73;14.05;;;;;;;4.16;95.54;99699.22;5083221;28;20038;-83
2023/11/30 07:55:59;;;;;;;34.83;17.27;;;;;;;4.30;94.56;99694.69;5076660;28;20020;-83
2023/11/30 07:58:24;;;;;;;26.05;14.40;;;;;;;4.20;92.72;99684.53;5093712;28;20024;-79
2023/11/30 08:00:51;;;;;;;25.60;15.15;;;;;;;4.42;93.68;99701.81;5094984;28;20039;-80
2023/11/30 08:03:16;;;;;;;22.55;14.93;;;;;;;4.59;94.88;99698.66;5073168;28;20060;-79
2023/11/30 08:05:43;;;;;;;24.73;14.75;;;;;;;4.69;93.38;99711.59;5082377;28;20085;-80
2023/11/30 08:08:10;;;;;;;46.95;19.63;;;;;;;4.78;92.55;99707.94;5110707;28;20345;-80
2023/11/30 08:10:35;;;;;;;46.80;19.95;;;;;;;4.82;91.84;99719.22;5100035;28;20023;-79
2023/11/30 08:13:01;;;;;;;42.92;19.83;;;;;;;4.89;91.13;99705.88;5075759;28;20131;-79
2023/11/30 08:15:26;;;;;;;48.70;23.98;;;;;;;5.17;91.73;99708.94;5099766;28;20028;-80
2023/11/30 08:17:52;;;;;;;45.22;20.35;;;;;;;5.57;89.97;99694.09;5095742;28;20543;-80
2023/11/30 08:20:17;;;;;;;37.28;20.20;;;;;;;5.57;89.08;99678.25;5079864;28;20080;-80
2023/11/30 08:22:43;;;;;;;30.42;17.63;;;;;;;5.85;87.14;99677.63;5094078;28;20408;-80
2023/11/30 08:25:11;;;;;;;108.25;21.15;;;;;;;5.83;87.19;99682.66;5103129;27;20027;-77
2023/11/30 08:27:37;;;;;;;26.30;12.40;;;;;;;5.61;88.70;99686.81;5078646;28;20035;-78
2023/11/30 08:30:04;;;;;;;21.42;11.85;;;;;;;5.73;87.36;99683.59;5096820;28;20504;-80
2023/11/30 08:32:30;;;;;;;28.30;13.27;;;;;;;6.16;86.54;99669.72;5090721;28;20030;-77
2023/11/30 08:34:55;;;;;;;20.90;13.05;;;;;;;6.40;86.26;99668.00;5108758;28;20031;-80
2023/11/30 08:37:21;;;;;;;14.50;10.43;;;;;;;6.65;84.73;99669.50;5085058;28;20072;-81
2023/11/30 08:39:47;;;;;;;16.55;11.52;;;;;;;6.64;84.14;99667.06;5077105;28;20048;-83
2023/11/30 08:42:12;;;;;;;19.27;11.45;;;;;;;6.67;82.95;99656.13;5106314;28;20043;-84
2023/11/30 08:44:38;;;;;;;20.65;11.52;;;;;;;6.48;84.10;99655.38;5112629;28;20031;-76
2023/11/30 08:47:03;;;;;;;20.48;13.52;;;;;;;6.46;85.11;99658.44;5114026;28;20056;-77
2023/11/30 08:49:29;;;;;;;18.75;12.55;;;;;;;6.54;85.16;99652.19;5111235;28;20413;-77
2023/11/30 08:51:55;;;;;;;30.80;15.30;;;;;;;6.71;85.26;99659.97;5112810;28;20420;-77
2023/11/30 08:54:21;;;;;;;16.15;11.48;;;;;;;6.66;85.08;99653.69;5114129;28;20023;-77
2023/11/30 08:56:47;;;;;;;18.42;10.85;;;;;;;6.72;85.10;99658.00;5113039;28;20462;-76
2023/11/30 08:59:12;;;;;;;17.23;11.15;;;;;;;6.94;83.50;99654.56;5095524;28;20031;-77
2023/11/30 09:01:38;;;;;;;22.95;13.43;;;;;;;7.27;83.13;99636.97;5113323;28;20024;-78
2023/11/30 09:04:05;;;;;;;18.27;11.65;;;;;;;7.51;82.44;99636.75;5109443;28;20090;-78
2023/11/30 09:06:32;;;;;;;17.75;11.98;;;;;;;7.58;82.34;99648.31;5093958;28;20028;-77
2023/11/30 09:08:58;;;;;;;22.55;13.77;;;;;;;7.80;81.43;99660.66;5114119;28;20030;-78
2023/11/30 09:11:24;;;;;;;23.50;14.35;;;;;;;7.83;80.66;99634.97;5108652;28;20024;-78
2023/11/30 09:13:49;;;;;;;21.17;13.63;;;;;;;7.68;79.47;99622.19;5094849;28;20028;-78
2023/11/30 09:16:15;;;;;;;26.58;14.60;;;;;;;7.82;80.50;99610.22;5094938;28;20104;-78
2023/11/30 09:18:40;;;;;;;27.38;15.80;;;;;;;7.79;80.64;99617.25;5111564;28;20024;-78
2023/11/30 09:21:06;;;;;;;26.27;14.77;;;;;;;7.81;80.57;99623.31;5094269;28;20023;-78
2023/11/30 09:23:32;;;;;;;23.52;16.00;;;;;;;7.69;80.95;99607.13;5095695;28;20038;-78
2023/11/30 09:25:57;;;;;;;20.30;12.73;;;;;;;7.71;80.47;99599.28;5119835;28;20032;-87
2023/11/30 09:28:23;;;;;;;22.30;14.35;;;;;;;7.90;80.29;99603.91;5112906;28;20027;-78
2023/11/30 09:30:48;;;;;;;23.02;14.50;;;;;;;7.93;79.37;99597.69;5110613;28;20031;-77
2023/11/30 09:33:13;;;;;;;23.90;13.45;;;;;;;7.96;80.04;99602.66;5094035;28;20037;-81
2023/11/30 09:35:39;;;;;;;27.42;14.95;;;;;;;7.75;78.67;99582.00;5088886;28;20089;-78
2023/11/30 09:38:05;;;;;;;139.90;85.65;;;;;;;7.62;79.87;99592.84;5101327;28;20073;-78
2023/11/30 09:40:30;;;;;;;31.27;16.15;;;;;;;7.50;80.76;99584.19;5093043;28;20051;-77
2023/11/30 09:42:59;;;;;;;18.42;12.15;;;;;;;7.78;80.10;99573.81;5100469;28;20031;-86
2023/11/30 09:45:25;;;;;;;22.23;12.20;;;;;;;7.90;80.40;99567.69;5078268;28;20028;-85
2023/11/30 09:47:51;;;;;;;20.08;11.85;;;;;;;7.62;81.75;99567.78;5073702;28;20028;-84
2023/11/30 09:50:16;;;;;;;23.40;13.43;;;;;;;7.52;82.96;99574.38;5075061;28;20035;-84
2023/11/30 09:52:42;;;;;;;22.63;12.38;;;;;;;7.52;82.06;99577.16;5096572;28;20027;-77
2023/11/30 09:55:11;;;;;;;23.02;11.95;;;;;;;7.40;82.67;99577.72;5087882;28;20019;-77
2023/11/30 09:57:37;;;;;;;20.60;12.63;;;;;;;7.24;82.70;99574.44;5109547;28;20016;-76
2023/11/30 10:00:07;;;;;;;19.23;10.95;;;;;;;7.00;83.46;99583.00;5103779;28;20073;-87
2023/11/30 10:02:33;;;;;;;22.23;11.68;;;;;;;7.26;83.22;99583.28;5091848;28;20019;-77
2023/11/30 10:04:58;;;;;;;78.15;30.65;;;;;;;7.61;83.59;99580.06;5093039;27;20019;-77
2023/11/30 10:07:24;;;;;;;36.25;18.58;;;;;;;7.61;82.23;99598.72;5088044;28;20084;-77
2023/11/30 10:09:49;;;;;;;19.15;11.65;;;;;;;7.26;84.15;99596.38;5099034;28;20481;-77
2023/11/30 10:12:19;;;;;;;21.77;11.80;;;;;;;7.25;84.11;99603.91;5091975;28;20024;-77
2023/11/30 10:14:45;;;;;;;;;;;;;;;7.39;84.11;99601.13;5092153;28;20094;-77
2023/11/30 10:17:10;;;;;;;22.88;13.85;;;;;;;7.69;83.34;99584.88;5083658;28;20029;-77
2023/11/30 10:19:36;;;;;;;22.10;13.15;;;;;;;7.63;83.12;99596.44;5109809;28;20023;-77
2023/11/30 10:22:03;;;;;;;15.38;11.48;;;;;;;7.91;81.98;99586.06;5102223;28;20032;-79
2023/11/30 10:24:28;;;;;;;20.33;11.88;;;;;;;8.04;82.11;99589.94;5100308;28;20024;-78
2023/11/30 10:26:58;;;;;;;18.42;11.98;;;;;;;7.94;82.53;99587.41;5091439;28;20434;-78
2023/11/30 10:29:27;;;;;;;16.70;11.02;;;;;;;7.94;81.30;99593.78;5111628;28;20062;-79
2023/11/30 10:31:54;;;;;;;15.93;10.98;;;;;;;8.46;80.53;99586.13;5111538;28;20114;-79
2023/11/30 10:34:34;;;;;;;23.85;12.68;;;;;;;8.68;78.16;99586.13;5112375;28;20027;-79
2023/11/30 10:37:02;;;;;;;16.02;11.38;;;;;;;8.82;78.17;99580.47;5093953;28;20043;-79
2023/11/30 10:39:35;;;;;;;17.85;11.77;;;;;;;8.81;76.90;99583.56;5094289;28;20097;-79
2023/11/30 10:42:09;;;;;;;20.08;11.02;;;;;;;8.95;76.52;99577.91;5108852;28;20503;-79
2023/11/30 10:44:37;;;;;;;16.88;11.63;;;;;;;8.92;77.71;99584.13;5111269;28;20051;-79
2023/11/30 10:47:03;;;;;;;14.43;10.20;;;;;;;8.68;76.56;99580.56;5111760;28;20031;-80
2023/11/30 10:49:29;;;;;;;15.95;10.68;;;;;;;8.77;78.23;99588.16;5112272;28;20019;-77
2023/11/30 10:51:57;;;;;;;20.17;11.88;;;;;;;8.92;78.16;99570.16;5093948;28;20100;-77
2023/11/30 10:54:35;;;;;;;20.05;10.25;;;;;;;8.88;77.54;99566.38;5112177;28;20016;-77
2023/11/30 10:57:01;;;;;;;13.00;9.25;;;;;;;8.93;76.17;99549.50;5111986;28;20026;-77
2023/11/30 10:59:31;;;;;;;22.08;10.02;;;;;;;9.15;76.75;99540.22;5093838;28;20016;-77
2023/11/30 11:01:57;;;;;;;19.77;12.50;;;;;;;9.18;76.21;99553.53;5106514;28;20031;-77
2023/11/30 11:04:24;;;;;;;25.80;13.73;;;;;;;8.98;76.25;99544.59;5092309;28;20028;-77
2023/11/30 11:06:50;;;;;;;22.63;13.27;;;;;;;8.98;76.48;99536.22;5110457;28;20491;-74
2023/11/30 11:09:15;;;;;;;20.08;11.98;;;;;;;8.96;75.88;99523.75;5092581;28;20058;-75
2023/11/30 11:11:43;;;;;;;23.00;13.60;;;;;;;9.27;75.61;99528.44;5112113;28;20024;-77
2023/11/30 11:14:24;;;;;;;23.02;13.57;;;;;;;9.60;74.81;99516.81;5112003;28;20019;-77
2023/11/30 11:16:51;;;;;;;25.52;13.18;;;;;;;9.74;75.10;99501.88;5110306;28;20091;-77